sensor_id;sensor_type;location;lat;lon;timestamp;pressure;altitude;pressure_sealevel;temperature;humidity
8318;BME280;4196;48.926;8.964;2023-02-25T00:02:03;97924.16;;;4.74;100.00
8318;BME280;4196;48.926;8.964;2023-02-25T00:04:49;97887.41;;;4.53;100.00
8318;BME280;4196;48.926;8.964;2023-02-25T00:07:37;97927.59;;;4.65;100.00
8318;BME280;4196;48.926;8.964;2023-02-25T00:10:23;97889.09;;;4.56;100.00
8318;BME280;4196;48.926;8.964;2023-02-25T00:13:10;97966.09;;;4.88;100.00
8318;BME280;4196;48.926;8.964;2023-02-25T00:16:04;97942.09;;;4.71;100.00
8318;BME280;4196;48.926;8.964;2023-02-25T00:18:55;97895.88;;;4.42;100.00
8318;BME280;4196;48.926;8.964;2023-02-25T00:21:42;97953.19;;;4.64;100.00
8318;BME280;4196;48.926;8.964;2023-02-25T00:24:29;97965.13;;;4.52;100.00
8318;BME280;4196;48.926;8.964;2023-02-25T00:27:15;97916.34;;;4.28;100.00
8318;BME280;4196;48.926;8.964;2023-02-25T00:30:04;97907.75;;;4.18;100.00
8318;BME280;4196;48.926;8.964;2023-02-25T00:32:50;97957.41;;;4.39;100.00
8318;BME280;4196;48.926;8.964;2023-02-25T00:35:38;97940.22;;;4.19;100.00
8318;BME280;4196;48.926;8.964;2023-02-25T00:38:26;97953.06;;;4.24;100.00
8318;BME280;4196;48.926;8.964;2023-02-25T00:41:14;97946.19;;;4.14;100.00
8318;BME280;4196;48.926;8.964;2023-02-25T00:44:01;97946.97;;;4.03;100.00
8318;BME280;4196;48.926;8.964;2023-02-25T00:46:48;97910.19;;;3.83;100.00
8318;BME280;4196;48.926;8.964;2023-02-25T00:49:35;97896.47;;;3.78;100.00
8318;BME280;4196;48.926;8.964;2023-02-25T00:52:21;97948.72;;;4.12;100.00
8318;BME280;4196;48.926;8.964;2023-02-25T00:55:08;97947.00;;;4.11;100.00
8318;BME280;4196;48.926;8.964;2023-02-25T00:57:55;97971.03;;;4.28;100.00
8318;BME280;4196;48.926;8.964;2023-02-25T01:00:42;97974.44;;;4.27;100.00
8318;BME280;4196;48.926;8.964;2023-02-25T01:03:37;97943.59;;;4.07;100.00
8318;BME280;4196;48.926;8.964;2023-02-25T01:06:25;97943.59;;;4.09;100.00
8318;BME280;4196;48.926;8.964;2023-02-25T01:09:12;97958.16;;;4.19;100.00
8318;BME280;4196;48.926;8.964;2023-02-25T01:12:02;97913.59;;;3.83;100.00
8318;BME280;4196;48.926;8.964;2023-02-25T01:14:49;97958.13;;;4.15;100.00
8318;BME280;4196;48.926;8.964;2023-02-25T01:17:35;97925.59;;;3.97;100.00
8318;BME280;4196;48.926;8.964;2023-02-25T01:20:22;97951.25;;;4.04;100.00
8318;BME280;4196;48.926;8.964;2023-02-25T01:23:10;97923.91;;;3.94;100.00
8318;BME280;4196;48.926;8.964;2023-02-25T01:25:56;97857.09;;;3.54;100.00
8318;BME280;4196;48.926;8.964;2023-02-25T01:28:42;97955.50;;;4.04;100.00
8318;BME280;4196;48.926;8.964;2023-02-25T01:31:28;97964.13;;;4.18;100.00
8318;BME280;4196;48.926;8.964;2023-02-25T01:34:16;97933.34;;;4.06;100.00
8318;BME280;4196;48.926;8.964;2023-02-25T01:37:03;97996.63;;;4.30;100.00
8318;BME280;4196;48.926;8.964;2023-02-25T01:39:50;97999.19;;;4.27;100.00
8318;BME280;4196;48.926;8.964;2023-02-25T01:42:37;97990.66;;;4.34;100.00
8318;BME280;4196;48.926;8.964;2023-02-25T01:45:27;98012.91;;;4.38;100.00
8318;BME280;4196;48.926;8.964;2023-02-25T01:48:18;97975.28;;;4.25;100.00
8318;BME280;4196;48.926;8.964;2023-02-25T01:51:08;98006.06;;;4.34;100.00
8318;BME280;4196;48.926;8.964;2023-02-25T01:53:59;97992.38;;;4.32;100.00
8318;BME280;4196;48.926;8.964;2023-02-25T01:56:51;97999.22;;;4.33;100.00
8318;BME280;4196;48.926;8.964;2023-02-25T01:59:39;97985.53;;;4.25;100.00
8318;BME280;4196;48.926;8.964;2023-02-25T02:02:27;98001.00;;;4.43;100.00
8318;BME280;4196;48.926;8.964;2023-02-25T02:05:15;97983.81;;;4.30;100.00
8318;BME280;4196;48.926;8.964;2023-02-25T02:08:03;97992.44;;;4.43;98.58
8318;BME280;4196;48.926;8.964;2023-02-25T02:10:49;97980.44;;;4.32;99.93
8318;BME280;4196;48.926;8.964;2023-02-25T02:13:38;97963.34;;;4.33;99.95
8318;BME280;4196;48.926;8.964;2023-02-25T02:16:33;97987.31;;;4.44;98.18
8318;BME280;4196;48.926;8.964;2023-02-25T02:26:07;97997.53;;;4.35;97.89
8318;BME280;4196;48.926;8.964;2023-02-25T02:29:32;97993.31;;;4.48;98.90
8318;BME280;4196;48.926;8.964;2023-02-25T02:32:37;97987.28;;;4.41;97.57
8318;BME280;4196;48.926;8.964;2023-02-25T02:35:47;97992.50;;;4.53;96.69
8318;BME280;4196;48.926;8.964;2023-02-25T02:38:44;97991.56;;;4.34;96.34
8318;BME280;4196;48.926;8.964;2023-02-25T02:41:36;97960.66;;;4.05;95.98
8318;BME280;4196;48.926;8.964;2023-02-25T02:44:28;98008.63;;;4.37;96.12
8318;BME280;4196;48.926;8.964;2023-02-25T02:47:31;98012.91;;;4.38;95.94
8318;BME280;4196;48.926;8.964;2023-02-25T02:53:31;97983.72;;;4.05;98.35
8318;BME280;4196;48.926;8.964;2023-02-25T02:56:20;97990.56;;;4.09;98.53
8318;BME280;4196;48.926;8.964;2023-02-25T02:59:19;97988.91;;;4.18;97.03
8318;BME280;4196;48.926;8.964;2023-02-25T03:02:20;97990.47;;;3.94;97.65
8318;BME280;4196;48.926;8.964;2023-02-25T03:05:11;98014.47;;;4.11;97.84
8318;BME280;4196;48.926;8.964;2023-02-25T03:08:22;98014.41;;;3.99;96.93
8318;BME280;4196;48.926;8.964;2023-02-25T03:11:11;98033.34;;;4.26;96.96
8318;BME280;4196;48.926;8.964;2023-02-25T03:13:58;98003.38;;;4.09;94.91
8318;BME280;4196;48.926;8.964;2023-02-25T03:17:11;98038.44;;;4.23;96.14
8318;BME280;4196;48.926;8.964;2023-02-25T03:20:14;98012.66;;;3.92;96.40
8318;BME280;4196;48.926;8.964;2023-02-25T03:23:05;98036.72;;;4.19;94.81
8318;BME280;4196;48.926;8.964;2023-02-25T03:28:51;98005.72;;;3.79;94.52
8318;BME280;4196;48.926;8.964;2023-02-25T03:31:50;98000.50;;;3.67;94.88
8318;BME280;4196;48.926;8.964;2023-02-25T03:34:47;98006.50;;;3.69;96.28
8318;BME280;4196;48.926;8.964;2023-02-25T03:37:36;97983.28;;;3.44;95.67
8318;BME280;4196;48.926;8.964;2023-02-25T03:40:25;98026.88;;;3.55;95.48
8318;BME280;4196;48.926;8.964;2023-02-25T03:43:21;97996.91;;;3.43;93.38
8318;BME280;4196;48.926;8.964;2023-02-25T03:46:12;98043.16;;;3.65;92.69
8318;BME280;4196;48.926;8.964;2023-02-25T03:49:02;98018.34;;;3.54;93.26
8318;BME280;4196;48.926;8.964;2023-02-25T03:51:50;98052.53;;;3.62;93.87
8318;BME280;4196;48.926;8.964;2023-02-25T03:54:38;98017.34;;;3.40;94.62
8318;BME280;4196;48.926;8.964;2023-02-25T03:57:34;98043.13;;;3.58;95.95
8318;BME280;4196;48.926;8.964;2023-02-25T04:00:25;98031.97;;;3.50;95.90
8318;BME280;4196;48.926;8.964;2023-02-25T04:03:12;98067.00;;;3.59;95.75
8318;BME280;4196;48.926;8.964;2023-02-25T04:05:58;98053.34;;;3.60;93.65
8318;BME280;4196;48.926;8.964;2023-02-25T04:08:45;98066.19;;;3.61;95.45
8318;BME280;4196;48.926;8.964;2023-02-25T04:11:31;98051.66;;;3.60;92.22
8318;BME280;4196;48.926;8.964;2023-02-25T04:14:18;98081.72;;;3.83;90.34
8318;BME280;4196;48.926;8.964;2023-02-25T04:17:04;98086.88;;;3.87;87.81
8318;BME280;4196;48.926;8.964;2023-02-25T04:19:51;98055.19;;;3.75;87.18
8318;BME280;4196;48.926;8.964;2023-02-25T04:22:39;98075.72;;;3.79;86.48
8318;BME280;4196;48.926;8.964;2023-02-25T04:25:27;98080.88;;;3.84;87.25
8318;BME280;4196;48.926;8.964;2023-02-25T04:28:13;98041.38;;;3.54;86.12
8318;BME280;4196;48.926;8.964;2023-02-25T04:31:00;98046.53;;;3.57;86.96
8318;BME280;4196;48.926;8.964;2023-02-25T04:33:46;98087.63;;;3.79;88.07
8318;BME280;4196;48.926;8.964;2023-02-25T04:36:35;98036.19;;;3.48;88.37
8318;BME280;4196;48.926;8.964;2023-02-25T04:39:21;98049.16;;;3.65;86.41
8318;BME280;4196;48.926;8.964;2023-02-25T04:42:08;98085.13;;;3.85;86.65
8318;BME280;4196;48.926;8.964;2023-02-25T04:44:54;98086.81;;;3.80;87.51
8318;BME280;4196;48.926;8.964;2023-02-25T04:47:41;98091.06;;;3.78;87.78
8318;BME280;4196;48.926;8.964;2023-02-25T04:50:28;98087.56;;;3.70;87.04
8318;BME280;4196;48.926;8.964;2023-02-25T04:53:14;98038.66;;;3.37;87.60
8318;BME280;4196;48.926;8.964;2023-02-25T04:56:03;98097.88;;;3.76;86.79
8318;BME280;4196;48.926;8.964;2023-02-25T04:58:50;98052.25;;;3.35;87.87
8318;BME280;4196;48.926;8.964;2023-02-25T05:01:37;98108.09;;;3.73;86.52
8318;BME280;4196;48.926;8.964;2023-02-25T05:04:24;98097.72;;;3.60;86.26
8318;BME280;4196;48.926;8.964;2023-02-25T05:07:12;98035.13;;;3.26;87.43
8318;BME280;4196;48.926;8.964;2023-02-25T05:09:58;98065.06;;;3.32;86.35
8318;BME280;4196;48.926;8.964;2023-02-25T05:12:44;98060.03;;;3.44;84.76
8318;BME280;4196;48.926;8.964;2023-02-25T05:15:31;98060.88;;;3.45;84.26
8318;BME280;4196;48.926;8.964;2023-02-25T05:18:17;98069.34;;;3.36;84.73
8318;BME280;4196;48.926;8.964;2023-02-25T05:21:08;98060.81;;;3.37;84.77
8318;BME280;4196;48.926;8.964;2023-02-25T05:23:55;98086.59;;;3.57;84.72
8318;BME280;4196;48.926;8.964;2023-02-25T05:26:42;98080.59;;;3.50;83.54
8318;BME280;4196;48.926;8.964;2023-02-25T05:29:28;98087.44;;;3.54;83.42
8318;BME280;4196;48.926;8.964;2023-02-25T05:32:15;98045.41;;;3.28;81.97
8318;BME280;4196;48.926;8.964;2023-02-25T05:35:01;98069.56;;;3.57;82.61
8318;BME280;4196;48.926;8.964;2023-02-25T05:37:48;98063.66;;;3.65;82.64
8318;BME280;4196;48.926;8.964;2023-02-25T05:40:34;98057.59;;;3.55;83.02
8318;BME280;4196;48.926;8.964;2023-02-25T05:43:21;98070.38;;;3.56;82.52
8318;BME280;4196;48.926;8.964;2023-02-25T05:46:07;98079.84;;;3.63;83.86
8318;BME280;4196;48.926;8.964;2023-02-25T05:48:59;98051.63;;;3.54;83.30
8318;BME280;4196;48.926;8.964;2023-02-25T05:51:45;98046.47;;;3.51;85.19
8318;BME280;4196;48.926;8.964;2023-02-25T05:54:33;98067.03;;;3.63;84.58
8318;BME280;4196;48.926;8.964;2023-02-25T05:57:19;98062.72;;;3.59;85.13
8318;BME280;4196;48.926;8.964;2023-02-25T06:00:09;98087.56;;;3.71;85.23
8318;BME280;4196;48.926;8.964;2023-02-25T06:02:59;98097.78;;;3.67;86.32
8318;BME280;4196;48.926;8.964;2023-02-25T06:05:46;98019.81;;;3.28;85.81
8318;BME280;4196;48.926;8.964;2023-02-25T06:08:33;98101.13;;;3.59;86.92
8318;BME280;4196;48.926;8.964;2023-02-25T06:11:23;98124.31;;;3.73;85.73
8318;BME280;4196;48.926;8.964;2023-02-25T06:14:10;98083.19;;;3.55;86.17
8318;BME280;4196;48.926;8.964;2023-02-25T06:16:57;98117.44;;;3.69;84.60
8318;BME280;4196;48.926;8.964;2023-02-25T06:19:43;98102.84;;;3.60;84.95
8318;BME280;4196;48.926;8.964;2023-02-25T06:22:29;98095.97;;;3.56;85.68
8318;BME280;4196;48.926;8.964;2023-02-25T06:25:15;98102.75;;;3.51;84.54
8318;BME280;4196;48.926;8.964;2023-02-25T06:28:02;98109.56;;;3.49;85.25
8318;BME280;4196;48.926;8.964;2023-02-25T06:30:48;98076.28;;;3.46;83.35
8318;BME280;4196;48.926;8.964;2023-02-25T06:33:36;98068.53;;;3.40;83.44
8318;BME280;4196;48.926;8.964;2023-02-25T06:36:23;98119.84;;;3.55;84.76
8318;BME280;4196;48.926;8.964;2023-02-25T06:39:10;98091.63;;;3.48;83.02
8318;BME280;4196;48.926;8.964;2023-02-25T06:41:56;98127.72;;;3.75;80.38
8318;BME280;4196;48.926;8.964;2023-02-25T06:44:43;98112.25;;;3.61;80.32
8318;BME280;4196;48.926;8.964;2023-02-25T06:47:29;98089.91;;;3.45;79.12
8318;BME280;4196;48.926;8.964;2023-02-25T06:50:16;98058.22;;;3.34;79.65
8318;BME280;4196;48.926;8.964;2023-02-25T06:53:02;98095.13;;;3.54;80.12
8318;BME280;4196;48.926;8.964;2023-02-25T06:55:48;98087.38;;;3.48;80.05
8318;BME280;4196;48.926;8.964;2023-02-25T06:58:35;98152.63;;;3.93;77.23
8318;BME280;4196;48.926;8.964;2023-02-25T07:01:22;98104.53;;;3.58;76.14
8318;BME280;4196;48.926;8.964;2023-02-25T07:04:13;98168.00;;;3.93;77.44
8318;BME280;4196;48.926;8.964;2023-02-25T07:07:00;98156.06;;;3.92;79.13
8318;BME280;4196;48.926;8.964;2023-02-25T07:09:46;98147.47;;;3.90;78.29
8318;BME280;4196;48.926;8.964;2023-02-25T07:12:33;98140.69;;;3.91;78.07
8318;BME280;4196;48.926;8.964;2023-02-25T07:15:20;98168.97;;;4.03;77.11
8318;BME280;4196;48.926;8.964;2023-02-25T07:18:06;98144.13;;;3.96;77.44
8318;BME280;4196;48.926;8.964;2023-02-25T07:20:52;98155.31;;;4.04;76.97
8318;BME280;4196;48.926;8.964;2023-02-25T07:23:40;98116.72;;;3.85;75.18
8318;BME280;4196;48.926;8.964;2023-02-25T07:26:26;98120.22;;;3.95;75.42
8318;BME280;4196;48.926;8.964;2023-02-25T07:29:14;98163.13;;;4.21;75.82
8318;BME280;4196;48.926;8.964;2023-02-25T07:32:00;98154.47;;;4.06;76.17
8318;BME280;4196;48.926;8.964;2023-02-25T07:34:47;98130.56;;;4.07;75.94
8318;BME280;4196;48.926;8.964;2023-02-25T07:37:33;98137.53;;;4.24;74.90
8318;BME280;4196;48.926;8.964;2023-02-25T07:40:20;98148.63;;;4.23;75.11
8318;BME280;4196;48.926;8.964;2023-02-25T07:43:06;98138.44;;;4.29;75.45
8318;BME280;4196;48.926;8.964;2023-02-25T07:45:56;98123.94;;;4.31;75.32
8318;BME280;4196;48.926;8.964;2023-02-25T07:48:42;98145.47;;;4.59;74.39
8318;BME280;4196;48.926;8.964;2023-02-25T07:51:29;98127.47;;;4.51;73.73
8318;BME280;4196;48.926;8.964;2023-02-25T07:54:15;98145.50;;;4.67;73.02
8318;BME280;4196;48.926;8.964;2023-02-25T07:57:02;98141.19;;;4.59;71.97
8318;BME280;4196;48.926;8.964;2023-02-25T07:59:48;98058.88;;;4.10;71.11
8318;BME280;4196;48.926;8.964;2023-02-25T08:02:36;98162.66;;;4.78;70.37
8318;BME280;4196;48.926;8.964;2023-02-25T08:05:23;98066.72;;;4.35;69.90
8318;BME280;4196;48.926;8.964;2023-02-25T08:08:09;98131.91;;;4.75;69.41
8318;BME280;4196;48.926;8.964;2023-02-25T08:10:56;98109.66;;;4.73;70.53
8318;BME280;4196;48.926;8.964;2023-02-25T08:13:43;98136.22;;;4.84;69.96
8318;BME280;4196;48.926;8.964;2023-02-25T08:16:29;98160.22;;;4.95;70.93
8318;BME280;4196;48.926;8.964;2023-02-25T08:19:15;98156.78;;;4.95;70.72
8318;BME280;4196;48.926;8.964;2023-02-25T08:22:02;98135.34;;;4.83;68.57
8318;BME280;4196;48.926;8.964;2023-02-25T08:24:49;98152.47;;;4.86;66.79
8318;BME280;4196;48.926;8.964;2023-02-25T08:27:36;98149.84;;;4.77;68.29
8318;BME280;4196;48.926;8.964;2023-02-25T08:30:23;98145.53;;;4.71;68.24
8318;BME280;4196;48.926;8.964;2023-02-25T08:33:09;98125.81;;;4.63;69.98
8318;BME280;4196;48.926;8.964;2023-02-25T08:38:55;98129.31;;;4.68;72.92
8318;BME280;4196;48.926;8.964;2023-02-25T08:41:43;98115.56;;;4.59;72.90
8318;BME280;4196;48.926;8.964;2023-02-25T08:44:29;98130.16;;;4.71;72.81
8318;BME280;4196;48.926;8.964;2023-02-25T08:47:20;98161.13;;;5.06;71.46
8318;BME280;4196;48.926;8.964;2023-02-25T08:50:07;98155.97;;;5.03;70.95
8318;BME280;4196;48.926;8.964;2023-02-25T08:52:55;98140.56;;;4.99;69.75
8318;BME280;4196;48.926;8.964;2023-02-25T08:55:42;98152.69;;;5.35;68.85
8318;BME280;4196;48.926;8.964;2023-02-25T08:58:29;98130.41;;;5.26;66.23
8318;BME280;4196;48.926;8.964;2023-02-25T09:01:16;98146.72;;;5.42;65.85
8318;BME280;4196;48.926;8.964;2023-02-25T09:04:03;98138.19;;;5.49;64.99
8318;BME280;4196;48.926;8.964;2023-02-25T09:06:50;98138.19;;;5.46;62.36
8318;BME280;4196;48.926;8.964;2023-02-25T09:09:39;98126.16;;;5.39;63.13
8318;BME280;4196;48.926;8.964;2023-02-25T09:12:25;98161.31;;;5.63;62.31
8318;BME280;4196;48.926;8.964;2023-02-25T09:15:12;98115.91;;;5.48;62.75
8318;BME280;4196;48.926;8.964;2023-02-25T09:17:58;98139.91;;;5.60;62.27
8318;BME280;4196;48.926;8.964;2023-02-25T09:20:48;98119.34;;;5.50;60.77
8318;BME280;4196;48.926;8.964;2023-02-25T09:23:35;98123.66;;;5.70;60.77
8318;BME280;4196;48.926;8.964;2023-02-25T09:26:22;98166.50;;;5.88;60.13
8318;BME280;4196;48.926;8.964;2023-02-25T09:29:09;98133.06;;;5.62;60.04
8318;BME280;4196;48.926;8.964;2023-02-25T09:31:55;98148.47;;;5.58;59.46
8318;BME280;4196;48.926;8.964;2023-02-25T09:34:42;98115.94;;;5.51;59.91
8318;BME280;4196;48.926;8.964;2023-02-25T09:37:28;98127.94;;;5.65;59.84
8318;BME280;4196;48.926;8.964;2023-02-25T09:40:16;98152.81;;;5.90;59.09
8318;BME280;4196;48.926;8.964;2023-02-25T09:43:20;98160.56;;;5.93;58.61
8318;BME280;4196;48.926;8.964;2023-02-25T09:46:12;98129.69;;;5.84;58.79
8318;BME280;4196;48.926;8.964;2023-02-25T09:49:26;98115.16;;;5.92;60.38
8318;BME280;4196;48.926;8.964;2023-02-25T09:52:17;98119.44;;;6.21;57.89
8318;BME280;4196;48.926;8.964;2023-02-25T09:55:19;98122.88;;;6.41;58.32
8318;BME280;4196;48.926;8.964;2023-02-25T09:58:27;98150.28;;;6.64;58.79
8318;BME280;4196;48.926;8.964;2023-02-25T10:01:42;98154.56;;;6.46;58.63
8318;BME280;4196;48.926;8.964;2023-02-25T10:04:52;98160.59;;;6.30;59.00
8318;BME280;4196;48.926;8.964;2023-02-25T10:08:00;98122.91;;;6.08;59.41
8318;BME280;4196;48.926;8.964;2023-02-25T10:11:10;98140.00;;;6.33;59.96
8318;BME280;4196;48.926;8.964;2023-02-25T10:14:06;98152.84;;;6.56;59.62
8318;BME280;4196;48.926;8.964;2023-02-25T10:23:37;98158.84;;;6.50;59.08
8318;BME280;4196;48.926;8.964;2023-02-25T10:26:36;98095.47;;;6.23;59.64
8318;BME280;4196;48.926;8.964;2023-02-25T10:29:34;98134.84;;;6.51;60.10
8318;BME280;4196;48.926;8.964;2023-02-25T10:32:25;98115.97;;;6.65;59.38
8318;BME280;4196;48.926;8.964;2023-02-25T10:35:16;98102.19;;;6.84;59.51
8318;BME280;4196;48.926;8.964;2023-02-25T10:38:04;98067.13;;;6.49;58.90
8318;BME280;4196;48.926;8.964;2023-02-25T10:40:54;98136.53;;;6.75;59.57
8318;BME280;4196;48.926;8.964;2023-02-25T10:43:43;98121.13;;;6.59;58.48
8318;BME280;4196;48.926;8.964;2023-02-25T10:46:46;98114.22;;;6.73;58.49
8318;BME280;4196;48.926;8.964;2023-02-25T10:49:34;98089.44;;;6.49;59.09
8318;BME280;4196;48.926;8.964;2023-02-25T10:52:23;98051.72;;;6.40;59.02
8318;BME280;4196;48.926;8.964;2023-02-25T10:55:38;98117.66;;;6.69;58.08
8318;BME280;4196;48.926;8.964;2023-02-25T10:58:31;98123.66;;;6.77;58.78
8318;BME280;4196;48.926;8.964;2023-02-25T11:01:21;98112.56;;;6.57;59.16
8318;BME280;4196;48.926;8.964;2023-02-25T11:04:14;98130.56;;;6.47;59.99
8318;BME280;4196;48.926;8.964;2023-02-25T11:07:30;98127.16;;;6.41;60.94
8318;BME280;4196;48.926;8.964;2023-02-25T11:10:19;98083.47;;;6.24;60.82
8318;BME280;4196;48.926;8.964;2023-02-25T11:13:28;98130.59;;;6.41;62.40
8318;BME280;4196;48.926;8.964;2023-02-25T11:16:16;98119.41;;;6.54;61.80
8318;BME280;4196;48.926;8.964;2023-02-25T11:19:16;98115.06;;;6.80;62.06
8318;BME280;4196;48.926;8.964;2023-02-25T11:22:10;98117.66;;;6.78;62.01
8318;BME280;4196;48.926;8.964;2023-02-25T11:25:03;98112.53;;;6.63;62.63
8318;BME280;4196;48.926;8.964;2023-02-25T11:27:54;98118.53;;;6.69;62.34
8318;BME280;4196;48.926;8.964;2023-02-25T11:30:44;98107.38;;;6.63;63.33
8318;BME280;4196;48.926;8.964;2023-02-25T11:33:36;98082.53;;;6.59;62.23
8318;BME280;4196;48.926;8.964;2023-02-25T11:36:35;98076.56;;;6.52;62.83
8318;BME280;4196;48.926;8.964;2023-02-25T11:39:24;98126.25;;;6.68;64.05
8318;BME280;4196;48.926;8.964;2023-02-25T11:42:24;98123.69;;;6.59;65.57
8318;BME280;4196;48.926;8.964;2023-02-25T11:45:16;98131.41;;;6.63;66.57
8318;BME280;4196;48.926;8.964;2023-02-25T11:48:04;98077.44;;;6.33;65.85
8318;BME280;4196;48.926;8.964;2023-02-25T12:03:51;98084.28;;;5.54;68.08
8318;BME280;4196;48.926;8.964;2023-02-25T12:10:16;98107.34;;;5.40;68.42
8318;BME280;4196;48.926;8.964;2023-02-25T12:22:12;98154.75;;;4.45;84.06
8318;BME280;4196;48.926;8.964;2023-02-25T12:31:34;98151.28;;;4.32;84.07
8318;BME280;4196;48.926;8.964;2023-02-25T12:34:39;98123.78;;;4.13;84.76
8318;BME280;4196;48.926;8.964;2023-02-25T12:37:58;98151.34;;;4.44;83.72
8318;BME280;4196;48.926;8.964;2023-02-25T13:06:25;98093.66;;;5.41;86.07
8318;BME280;4196;48.926;8.964;2023-02-25T13:09:43;98091.88;;;5.16;85.45
8318;BME280;4196;48.926;8.964;2023-02-25T13:12:44;98095.22;;;4.90;86.91
8318;BME280;4196;48.926;8.964;2023-02-25T13:16:03;98098.69;;;5.04;87.13
8318;BME280;4196;48.926;8.964;2023-02-25T13:25:16;98084.31;;;5.80;80.42
8318;BME280;4196;48.926;8.964;2023-02-25T13:31:52;98082.59;;;6.34;77.53
8318;BME280;4196;48.926;8.964;2023-02-25T13:34:58;98083.44;;;6.33;72.53
8318;BME280;4196;48.926;8.964;2023-02-25T13:37:56;98082.56;;;6.43;71.98
8318;BME280;4196;48.926;8.964;2023-02-25T13:41:02;98080.81;;;6.65;69.86
8318;BME280;4196;48.926;8.964;2023-02-25T13:46:53;98079.78;;;7.15;65.99
8318;BME280;4196;48.926;8.964;2023-02-25T13:50:13;98073.94;;;6.75;63.63
8318;BME280;4196;48.926;8.964;2023-02-25T13:56:41;98059.47;;;5.88;64.21
8318;BME280;4196;48.926;8.964;2023-02-25T13:59:45;98074.06;;;6.09;63.87
8318;BME280;4196;48.926;8.964;2023-02-25T14:03:01;98068.00;;;6.45;63.58
8318;BME280;4196;48.926;8.964;2023-02-25T14:06:17;98025.97;;;6.51;61.68
8318;BME280;4196;48.926;8.964;2023-02-25T14:09:16;98045.75;;;6.41;61.66
8318;BME280;4196;48.926;8.964;2023-02-25T14:15:20;98073.13;;;6.50;60.60
8318;BME280;4196;48.926;8.964;2023-02-25T14:25:17;98066.34;;;5.95;62.58
8318;BME280;4196;48.926;8.964;2023-02-25T14:28:24;98060.34;;;5.99;62.58
8318;BME280;4196;48.926;8.964;2023-02-25T14:31:32;98077.47;;;6.23;62.05
8318;BME280;4196;48.926;8.964;2023-02-25T14:34:40;98072.31;;;6.22;62.12
8318;BME280;4196;48.926;8.964;2023-02-25T14:37:41;98064.63;;;5.94;63.34
8318;BME280;4196;48.926;8.964;2023-02-25T14:43:42;98026.91;;;5.32;65.82
8318;BME280;4196;48.926;8.964;2023-02-25T14:46:53;98075.72;;;5.69;66.16
8318;BME280;4196;48.926;8.964;2023-02-25T14:49:53;98072.34;;;6.03;64.97
8318;BME280;4196;48.926;8.964;2023-02-25T14:53:34;98074.91;;;6.13;64.58
8318;BME280;4196;48.926;8.964;2023-02-25T14:59:22;98084.34;;;6.09;62.21
8318;BME280;4196;48.926;8.964;2023-02-25T15:20:55;98044.03;;;6.25;60.09
8318;BME280;4196;48.926;8.964;2023-02-25T15:23:49;98102.28;;;6.57;60.83
8318;BME280;4196;48.926;8.964;2023-02-25T15:26:44;98107.44;;;6.49;60.98
8318;BME280;4196;48.926;8.964;2023-02-25T15:35:12;98136.59;;;5.94;62.78
8318;BME280;4196;48.926;8.964;2023-02-25T15:40:49;98119.75;;;4.42;81.03
8318;BME280;4196;48.926;8.964;2023-02-25T15:43:40;98161.38;;;4.14;92.96
8318;BME280;4196;48.926;8.964;2023-02-25T15:49:32;98140.09;;;3.34;100.00
8318;BME280;4196;48.926;8.964;2023-02-25T15:55:41;98157.91;;;3.26;100.00
8318;BME280;4196;48.926;8.964;2023-02-25T16:01:22;98151.66;;;3.01;100.00
8318;BME280;4196;48.926;8.964;2023-02-25T16:04:41;98150.78;;;3.01;100.00
8318;BME280;4196;48.926;8.964;2023-02-25T16:07:35;98122.34;;;2.75;100.00
8318;BME280;4196;48.926;8.964;2023-02-25T16:10:27;98149.78;;;2.88;100.00
8318;BME280;4196;48.926;8.964;2023-02-25T16:13:25;98165.13;;;2.88;100.00
8318;BME280;4196;48.926;8.964;2023-02-25T16:16:13;98145.47;;;2.84;100.00
8318;BME280;4196;48.926;8.964;2023-02-25T16:19:02;98135.81;;;2.61;100.00
8318;BME280;4196;48.926;8.964;2023-02-25T16:21:56;98146.91;;;2.65;100.00
8318;BME280;4196;48.926;8.964;2023-02-25T16:24:50;98170.81;;;2.69;100.00
8318;BME280;4196;48.926;8.964;2023-02-25T16:30:36;98180.16;;;2.66;100.00
8318;BME280;4196;48.926;8.964;2023-02-25T16:39:39;98159.59;;;2.59;100.00
8318;BME280;4196;48.926;8.964;2023-02-25T16:42:25;98159.28;;;2.37;100.00
8318;BME280;4196;48.926;8.964;2023-02-25T16:45:24;98202.16;;;2.57;100.00
8318;BME280;4196;48.926;8.964;2023-02-25T16:48:16;98191.75;;;2.46;100.00
8318;BME280;4196;48.926;8.964;2023-02-25T16:51:24;98200.28;;;2.45;100.00
8318;BME280;4196;48.926;8.964;2023-02-25T16:54:15;98214.13;;;2.61;100.00
8318;BME280;4196;48.926;8.964;2023-02-25T16:57:05;98214.81;;;2.48;100.00
8318;BME280;4196;48.926;8.964;2023-02-25T17:00:12;98211.47;;;2.53;100.00
8318;BME280;4196;48.926;8.964;2023-02-25T17:03:02;98233.03;;;2.71;100.00
8318;BME280;4196;48.926;8.964;2023-02-25T17:06:16;98215.59;;;2.45;100.00
8318;BME280;4196;48.926;8.964;2023-02-25T17:09:03;98226.63;;;2.42;100.00
8318;BME280;4196;48.926;8.964;2023-02-25T17:11:53;98243.66;;;2.42;100.00
8318;BME280;4196;48.926;8.964;2023-02-25T17:14:44;98231.66;;;2.36;100.00
8318;BME280;4196;48.926;8.964;2023-02-25T17:17:36;98239.16;;;2.82;100.00
8318;BME280;4196;48.926;8.964;2023-02-25T17:20:24;98229.53;;;2.64;100.00
8318;BME280;4196;48.926;8.964;2023-02-25T17:23:14;98263.50;;;3.16;100.00
8318;BME280;4196;48.926;8.964;2023-02-25T17:26:03;98274.69;;;3.23;100.00
8318;BME280;4196;48.926;8.964;2023-02-25T17:28:52;98336.00;;;3.17;100.00
8318;BME280;4196;48.926;8.964;2023-02-25T17:31:47;98341.41;;;2.32;100.00
8318;BME280;4196;48.926;8.964;2023-02-25T17:34:34;98335.59;;;1.95;100.00
8318;BME280;4196;48.926;8.964;2023-02-25T17:37:21;98334.84;;;1.58;100.00
8318;BME280;4196;48.926;8.964;2023-02-25T17:40:11;98343.84;;;1.41;100.00
8318;BME280;4196;48.926;8.964;2023-02-25T17:43:21;98330.69;;;1.24;100.00
8318;BME280;4196;48.926;8.964;2023-02-25T17:46:33;98309.28;;;1.17;100.00
8318;BME280;4196;48.926;8.964;2023-02-25T17:49:29;98337.63;;;1.30;100.00
8318;BME280;4196;48.926;8.964;2023-02-25T17:55:23;98353.13;;;1.39;100.00
8318;BME280;4196;48.926;8.964;2023-02-25T17:58:20;98351.56;;;1.44;100.00
8318;BME280;4196;48.926;8.964;2023-02-25T18:01:17;98353.28;;;1.45;100.00
8318;BME280;4196;48.926;8.964;2023-02-25T18:04:05;98350.78;;;1.48;100.00
8318;BME280;4196;48.926;8.964;2023-02-25T18:06:52;98322.41;;;1.33;100.00
8318;BME280;4196;48.926;8.964;2023-02-25T18:09:40;98354.03;;;1.41;100.00
8318;BME280;4196;48.926;8.964;2023-02-25T18:18:03;98379.13;;;1.60;100.00
8318;BME280;4196;48.926;8.964;2023-02-25T18:20:56;98358.16;;;1.36;100.00
8318;BME280;4196;48.926;8.964;2023-02-25T18:23:43;98385.75;;;1.52;100.00
8318;BME280;4196;48.926;8.964;2023-02-25T18:26:29;98356.41;;;1.33;100.00
8318;BME280;4196;48.926;8.964;2023-02-25T18:29:16;98380.22;;;1.72;100.00
8318;BME280;4196;48.926;8.964;2023-02-25T18:32:04;98358.91;;;1.69;100.00